createdAt,value
2023-01-18T00:00:35.065Z,0.56
2023-01-18T00:01:35.061Z,0.56
2023-01-18T00:02:35.034Z,0.56
2023-01-18T00:03:35.079Z,0.56
2023-01-18T00:04:35.172Z,0.55
2023-01-18T00:05:35.140Z,0.55
2023-01-18T00:06:35.177Z,0.55
2023-01-18T00:07:35.226Z,0.56
2023-01-18T00:08:35.245Z,0.56
2023-01-18T00:09:35.290Z,0.56
2023-01-18T00:10:35.324Z,0.56
2023-01-18T00:11:35.367Z,0.57
2023-01-18T00:12:35.386Z,0.57
2023-01-18T00:13:35.447Z,0.56
2023-01-18T00:14:35.463Z,0.55
2023-01-18T00:15:35.498Z,0.54
2023-01-18T00:16:35.581Z,0.54
2023-01-18T00:17:35.567Z,0.53
2023-01-18T00:18:35.602Z,0.54
2023-01-18T00:19:35.626Z,0.54
2023-01-18T00:20:35.677Z,0.54
2023-01-18T00:21:35.704Z,0.54
2023-01-18T00:22:35.743Z,0.53
2023-01-18T00:23:35.772Z,0.53
2023-01-18T00:24:35.810Z,0.52
2023-01-18T00:25:35.842Z,0.5
2023-01-18T00:26:35.902Z,0.52
2023-01-18T00:27:35.916Z,0.49
2023-01-18T00:28:35.956Z,0.48
2023-01-18T00:29:35.989Z,0.5
2023-01-18T00:30:36.029Z,0.49
2023-01-18T00:31:36.107Z,0.5
2023-01-18T00:32:36.088Z,0.53
2023-01-18T00:33:36.146Z,0.53
2023-01-18T00:34:36.171Z,0.53
2023-01-18T00:35:36.196Z,0.53
2023-01-18T00:36:36.240Z,0.53
2023-01-18T00:37:36.267Z,0.52
2023-01-18T00:38:36.300Z,0.53
2023-01-18T00:39:36.341Z,0.53
2023-01-18T00:40:36.375Z,0.52
2023-01-18T00:41:36.402Z,0.5
2023-01-18T00:42:36.455Z,0.48
2023-01-18T00:43:36.488Z,0.47
2023-01-18T00:44:36.510Z,0.46
2023-01-18T00:45:36.587Z,0.44
2023-01-18T00:46:36.578Z,0.43
2023-01-18T00:47:36.643Z,0.44
2023-01-18T00:48:36.649Z,0.45
2023-01-18T00:49:36.677Z,0.46
2023-01-18T00:50:36.711Z,0.45
2023-01-18T00:51:36.749Z,0.44
2023-01-18T00:52:36.814Z,0.45
2023-01-18T00:53:36.844Z,0.44
2023-01-18T00:54:36.868Z,0.44
2023-01-18T00:55:36.890Z,0.45
2023-01-18T00:56:36.931Z,0.46
2023-01-18T00:57:36.966Z,0.47
2023-01-18T00:58:37.064Z,0.47
2023-01-18T00:59:37.052Z,0.47
2023-01-18T01:00:37.090Z,0.48
2023-01-18T01:01:37.222Z,0.49
2023-01-18T01:02:37.190Z,0.49
2023-01-18T01:03:37.221Z,0.49
2023-01-18T01:04:37.237Z,0.49
2023-01-18T01:05:37.294Z,0.49
2023-01-18T01:06:37.308Z,0.51
2023-01-18T01:07:37.341Z,0.51
2023-01-18T01:08:37.384Z,0.51
2023-01-18T01:09:37.415Z,0.51
2023-01-18T01:10:37.457Z,0.51
2023-01-18T01:11:37.479Z,0.5
2023-01-18T01:12:37.521Z,0.54
2023-01-18T01:13:37.557Z,0.53
2023-01-18T01:14:37.597Z,0.49
2023-01-18T01:15:37.632Z,0.5
2023-01-18T01:16:37.750Z,0.52
2023-01-18T01:17:37.713Z,0.5
2023-01-18T01:18:37.752Z,0.49
2023-01-18T01:19:37.784Z,0.49
2023-01-18T01:20:37.831Z,0.5
2023-01-18T01:21:37.850Z,0.51
2023-01-18T01:22:37.892Z,0.51
2023-01-18T01:23:37.932Z,0.51
2023-01-18T01:24:37.964Z,0.51
2023-01-18T01:25:38.039Z,0.53
2023-01-18T01:26:38.028Z,0.53
2023-01-18T01:27:38.067Z,0.52
2023-01-18T01:28:38.103Z,0.51
2023-01-18T01:29:38.149Z,0.5
2023-01-18T01:30:38.226Z,0.5
2023-01-18T01:31:38.229Z,0.51
2023-01-18T01:32:38.226Z,0.52
2023-01-18T01:33:38.266Z,0.53
2023-01-18T01:34:38.309Z,0.53
2023-01-18T01:35:38.353Z,0.54
2023-01-18T01:36:38.398Z,0.55
2023-01-18T01:37:38.427Z,0.55
2023-01-18T01:38:38.465Z,0.55
2023-01-18T01:39:38.508Z,0.56
2023-01-18T01:40:38.549Z,0.57
2023-01-18T01:41:38.580Z,0.56
2023-01-18T01:42:38.640Z,0.54
2023-01-18T01:43:38.652Z,0.55
2023-01-18T01:44:38.690Z,0.55
2023-01-18T01:45:38.814Z,0.56
2023-01-18T01:46:38.793Z,0.56
2023-01-18T01:47:38.812Z,0.56
2023-01-18T01:48:38.843Z,0.58
2023-01-18T01:49:38.867Z,0.58
2023-01-18T01:50:38.908Z,0.59
2023-01-18T01:51:38.957Z,0.6
2023-01-18T01:52:38.999Z,0.6
2023-01-18T01:53:39.035Z,0.59
2023-01-18T01:54:39.076Z,0.59
2023-01-18T01:55:39.106Z,0.59
2023-01-18T01:56:39.145Z,0.59
2023-01-18T01:57:39.192Z,0.59
2023-01-18T01:58:39.224Z,0.58
2023-01-18T01:59:39.260Z,0.57
2023-01-18T02:00:39.299Z,0.57
2023-01-18T02:01:39.456Z,0.57
2023-01-18T02:02:39.409Z,0.58
2023-01-18T02:03:39.406Z,0.62
2023-01-18T02:04:39.431Z,0.61
2023-01-18T02:05:39.466Z,0.61
2023-01-18T02:06:39.496Z,0.62
2023-01-18T02:07:39.526Z,0.62
2023-01-18T02:08:39.567Z,0.63
2023-01-18T02:09:39.610Z,0.63
2023-01-18T02:10:39.646Z,0.63
2023-01-18T02:11:39.687Z,0.64
2023-01-18T02:12:39.743Z,0.64
2023-01-18T02:13:39.772Z,0.65
2023-01-18T02:14:39.808Z,0.64
2023-01-18T02:15:39.844Z,0.62
2023-01-18T02:16:39.941Z,0.61
2023-01-18T02:17:39.918Z,0.62
2023-01-18T02:18:39.946Z,0.62
2023-01-18T02:19:39.975Z,0.6
2023-01-18T02:20:40.020Z,0.61
2023-01-18T02:21:40.080Z,0.61
2023-01-18T02:22:40.087Z,0.64
2023-01-18T02:23:40.127Z,0.64
2023-01-18T02:24:40.164Z,0.65
2023-01-18T02:25:40.181Z,0.64
2023-01-18T02:26:40.252Z,0.65
2023-01-18T02:27:40.269Z,0.65
2023-01-18T02:28:40.314Z,0.68
2023-01-18T02:29:40.359Z,0.65
2023-01-18T02:30:40.413Z,0.64
2023-01-18T02:31:40.431Z,0.62
2023-01-18T02:32:40.476Z,0.61
2023-01-18T02:33:40.507Z,0.61
2023-01-18T02:34:40.545Z,0.61
2023-01-18T02:35:40.580Z,0.61
2023-01-18T02:36:40.609Z,0.61
2023-01-18T02:37:40.658Z,0.62
2023-01-18T02:38:40.694Z,0.62
2023-01-18T02:39:40.719Z,0.63
2023-01-18T02:40:40.758Z,0.65
2023-01-18T02:41:40.793Z,0.68
2023-01-18T02:42:40.852Z,0.67
2023-01-18T02:43:40.872Z,0.67
2023-01-18T02:44:40.892Z,0.67
2023-01-18T02:45:40.926Z,0.68
2023-01-18T02:46:40.964Z,0.68
2023-01-18T02:47:41.004Z,0.67
2023-01-18T02:48:41.026Z,0.68
2023-01-18T02:49:41.069Z,0.68
2023-01-18T02:50:41.101Z,0.68
2023-01-18T02:51:41.138Z,0.68
2023-01-18T02:52:41.238Z,0.68
2023-01-18T02:53:41.238Z,0.68
2023-01-18T02:54:41.266Z,0.69
2023-01-18T02:55:41.302Z,0.69
2023-01-18T02:56:41.327Z,0.71
2023-01-18T02:57:41.383Z,0.71
2023-01-18T02:58:41.399Z,0.72
2023-01-18T02:59:41.434Z,0.72
2023-01-18T03:00:41.456Z,0.71
2023-01-18T03:01:41.573Z,0.71
2023-01-18T03:02:41.667Z,0.66
2023-01-18T03:03:41.573Z,0.66
2023-01-18T03:04:41.632Z,0.71
2023-01-18T03:05:41.640Z,0.71
2023-01-18T03:06:41.673Z,0.7
2023-01-18T03:07:41.715Z,0.7
2023-01-18T03:08:41.748Z,0.7
2023-01-18T03:09:41.833Z,0.71
2023-01-18T03:10:41.830Z,0.7
2023-01-18T03:11:41.865Z,0.7
2023-01-18T03:12:41.903Z,0.69
2023-01-18T03:13:41.934Z,0.68
2023-01-18T03:14:41.983Z,0.69
2023-01-18T03:15:42.085Z,0.69
2023-01-18T03:16:42.035Z,0.69
2023-01-18T03:17:42.070Z,0.7
2023-01-18T03:18:42.111Z,0.7
2023-01-18T03:19:42.157Z,0.71
2023-01-18T03:20:42.205Z,0.7
2023-01-18T03:21:42.234Z,0.7
2023-01-18T03:22:42.281Z,0.71
2023-01-18T03:23:42.294Z,0.71
2023-01-18T03:24:42.334Z,0.71
2023-01-18T03:25:42.407Z,0.72
2023-01-18T03:26:42.433Z,0.73
2023-01-18T03:27:42.447Z,0.74
2023-01-18T03:28:42.502Z,0.73
2023-01-18T03:29:42.513Z,0.74
2023-01-18T03:30:42.593Z,0.74
2023-01-18T03:31:42.589Z,0.74
2023-01-18T03:32:42.617Z,0.72
2023-01-18T03:33:42.665Z,0.72
2023-01-18T03:34:42.697Z,0.73
2023-01-18T03:35:42.730Z,0.73
2023-01-18T03:36:42.764Z,0.74
2023-01-18T03:37:42.798Z,0.75
2023-01-18T03:38:42.826Z,0.76
2023-01-18T03:39:42.867Z,0.76
2023-01-18T03:40:42.898Z,0.75
2023-01-18T03:41:42.926Z,0.77
2023-01-18T03:42:42.970Z,0.77
2023-01-18T03:43:43.000Z,0.77
2023-01-18T03:44:43.050Z,0.75
2023-01-18T03:45:43.083Z,0.74
2023-01-18T03:46:43.120Z,0.76
2023-01-18T03:47:43.146Z,0.7
2023-01-18T03:48:43.201Z,0.7
2023-01-18T03:49:43.224Z,0.7
2023-01-18T03:50:43.243Z,0.7
2023-01-18T03:51:43.345Z,0.7
2023-01-18T03:52:43.328Z,0.7
2023-01-18T03:53:43.391Z,0.72
2023-01-18T03:54:43.378Z,0.71
2023-01-18T03:55:43.427Z,0.71
2023-01-18T03:56:43.507Z,0.7
2023-01-18T03:57:43.501Z,0.7
2023-01-18T03:58:43.536Z,0.68
2023-01-18T03:59:43.573Z,0.69
2023-01-18T04:00:43.616Z,0.7
2023-01-18T04:01:43.722Z,0.75
2023-01-18T04:02:43.748Z,0.75
2023-01-18T04:03:43.714Z,0.75
2023-01-18T04:04:43.750Z,0.75
2023-01-18T04:05:43.794Z,0.74
2023-01-18T04:06:43.834Z,0.74
2023-01-18T04:07:43.874Z,0.75
2023-01-18T04:08:43.910Z,0.77
2023-01-18T04:09:43.947Z,0.77
2023-01-18T04:10:43.987Z,0.74
2023-01-18T04:11:44.031Z,0.77
2023-01-18T04:12:44.066Z,0.77
2023-01-18T04:13:44.093Z,0.76
2023-01-18T04:14:44.127Z,0.76
2023-01-18T04:15:44.183Z,0.72
2023-01-18T04:16:44.207Z,0.7
2023-01-18T04:17:44.243Z,0.7
2023-01-18T04:18:44.293Z,0.69
2023-01-18T04:19:44.322Z,0.69
2023-01-18T04:20:44.362Z,0.7
2023-01-18T04:21:44.385Z,0.69
2023-01-18T04:22:44.430Z,0.69
2023-01-18T04:23:44.457Z,0.7
2023-01-18T04:24:44.489Z,0.7
2023-01-18T04:25:44.523Z,0.72
2023-01-18T04:26:44.556Z,0.75
2023-01-18T04:27:44.638Z,0.76
2023-01-18T04:28:44.630Z,0.78
2023-01-18T04:29:44.663Z,0.78
2023-01-18T04:30:44.705Z,0.79
2023-01-18T04:31:44.749Z,0.78
2023-01-18T04:32:44.801Z,0.78
2023-01-18T04:33:44.825Z,0.77
2023-01-18T04:34:44.853Z,0.77
2023-01-18T04:35:44.897Z,0.77
2023-01-18T04:36:44.928Z,0.77
2023-01-18T04:37:44.969Z,0.77
2023-01-18T04:38:45.028Z,0.77
2023-01-18T04:39:45.033Z,0.8
2023-01-18T04:40:45.076Z,0.79
2023-01-18T04:41:45.102Z,0.8
2023-01-18T04:42:45.135Z,0.81
2023-01-18T04:43:45.207Z,0.82
2023-01-18T04:44:45.201Z,0.83
2023-01-18T04:45:45.252Z,0.83
2023-01-18T04:46:45.377Z,0.84
2023-01-18T04:47:45.302Z,0.82
2023-01-18T04:48:45.372Z,0.84
2023-01-18T04:49:45.385Z,0.84
2023-01-18T04:50:45.440Z,0.84
2023-01-18T04:51:45.472Z,0.85
2023-01-18T04:52:45.507Z,0.85
2023-01-18T04:53:45.537Z,0.85
2023-01-18T04:54:45.615Z,0.85
2023-01-18T04:55:45.617Z,0.86
2023-01-18T04:56:45.663Z,0.86
2023-01-18T04:57:45.705Z,0.84
2023-01-18T04:58:45.741Z,0.86
2023-01-18T04:59:45.794Z,0.84
2023-01-18T05:00:45.897Z,0.86
2023-01-18T05:01:45.897Z,0.87
2023-01-18T05:02:45.865Z,0.87
2023-01-18T05:03:45.904Z,0.86
2023-01-18T05:04:45.933Z,0.9
2023-01-18T05:05:45.969Z,0.9
2023-01-18T05:06:46.001Z,0.9
2023-01-18T05:07:46.045Z,0.91
2023-01-18T05:08:46.070Z,0.9
2023-01-18T05:09:46.119Z,0.9
2023-01-18T05:10:46.145Z,0.92
2023-01-18T05:11:46.182Z,0.92
2023-01-18T05:12:46.209Z,0.92
2023-01-18T05:13:46.248Z,0.92
2023-01-18T05:14:46.315Z,0.91
2023-01-18T05:15:46.323Z,0.91
2023-01-18T05:16:46.345Z,0.94
2023-01-18T05:17:46.388Z,0.93
2023-01-18T05:18:46.419Z,0.93
2023-01-18T05:19:46.471Z,0.93
2023-01-18T05:20:46.491Z,0.92
2023-01-18T05:21:46.529Z,0.92
2023-01-18T05:22:46.561Z,0.92
2023-01-18T05:23:46.597Z,0.91
2023-01-18T05:24:46.650Z,0.98
2023-01-18T05:25:46.683Z,0.95
2023-01-18T05:26:46.710Z,0.96
2023-01-18T05:27:46.757Z,1
2023-01-18T05:28:46.792Z,0.99
2023-01-18T05:29:46.816Z,1.01
2023-01-18T05:30:46.865Z,0.99
2023-01-18T05:31:46.952Z,1.01
2023-01-18T05:32:46.923Z,1.01
2023-01-18T05:33:46.958Z,1.03
2023-01-18T05:34:46.997Z,1.02
2023-01-18T05:35:47.030Z,1.02
2023-01-18T05:36:47.072Z,1.02
2023-01-18T05:37:47.111Z,1.02
2023-01-18T05:38:47.146Z,1.04
2023-01-18T05:39:47.190Z,1.04
2023-01-18T05:40:47.224Z,1.04
2023-01-18T05:41:47.260Z,1.03
2023-01-18T05:42:47.312Z,1.07
2023-01-18T05:43:47.326Z,1.08
2023-01-18T05:44:47.351Z,1.08
2023-01-18T05:45:47.449Z,1.1
2023-01-18T05:46:47.437Z,1.1
2023-01-18T05:47:47.473Z,1.1
2023-01-18T05:48:47.495Z,1.12
2023-01-18T05:49:47.549Z,1.12
2023-01-18T05:50:47.606Z,1.12
2023-01-18T05:51:47.621Z,1.13
2023-01-18T05:52:47.666Z,1.13
2023-01-18T05:53:47.715Z,1.14
2023-01-18T05:54:47.739Z,1.18
2023-01-18T05:55:47.790Z,1.21
2023-01-18T05:56:47.809Z,1.19
2023-01-18T05:57:47.862Z,1.17
2023-01-18T05:58:47.879Z,1.19
2023-01-18T05:59:47.914Z,1.19
2023-01-18T06:00:47.990Z,1.19
2023-01-18T06:01:48.021Z,1.19
2023-01-18T06:02:48.019Z,1.19
2023-01-18T06:03:48.048Z,1.18
2023-01-18T06:04:48.110Z,1.19
2023-01-18T06:05:48.112Z,1.19
2023-01-18T06:06:48.147Z,1.18
2023-01-18T06:07:48.189Z,1.18
2023-01-18T06:08:48.217Z,1.2
2023-01-18T06:09:48.240Z,1.2
2023-01-18T06:10:48.284Z,1.19
2023-01-18T06:11:48.353Z,1.19
2023-01-18T06:12:48.351Z,1.26
2023-01-18T06:13:48.401Z,1.26
2023-01-18T06:14:48.435Z,1.26
2023-01-18T06:15:49.753Z,1.26
2023-01-18T06:16:48.590Z,1.25
2023-01-18T06:17:48.536Z,1.25
2023-01-18T06:18:48.569Z,1.25
2023-01-18T06:19:48.615Z,1.25
2023-01-18T06:20:48.643Z,1.25
2023-01-18T06:21:48.695Z,1.25
2023-01-18T06:22:48.711Z,1.26
2023-01-18T06:23:48.748Z,1.25
2023-01-18T06:24:48.801Z,1.27
2023-01-18T06:25:48.823Z,1.27
2023-01-18T06:26:48.856Z,1.27
2023-01-18T06:27:48.892Z,1.27
2023-01-18T06:28:48.931Z,1.25
2023-01-18T06:29:48.958Z,1.26
2023-01-18T06:30:48.997Z,1.26
2023-01-18T06:31:49.055Z,1.26
2023-01-18T06:32:49.057Z,1.26
2023-01-18T06:33:49.098Z,1.26
2023-01-18T06:34:49.118Z,1.26
2023-01-18T06:35:49.158Z,1.26
2023-01-18T06:36:49.187Z,1.25
2023-01-18T06:37:49.222Z,1.26
2023-01-18T06:38:49.258Z,1.26
2023-01-18T06:39:49.302Z,1.26
2023-01-18T06:40:49.333Z,1.26
2023-01-18T06:41:49.370Z,1.25
2023-01-18T06:42:49.418Z,1.24
2023-01-18T06:43:49.452Z,1.24
2023-01-18T06:44:49.477Z,1.24
2023-01-18T06:45:52.118Z,1.25
2023-01-18T06:46:49.583Z,1.25
2023-01-18T06:47:49.693Z,1.25
2023-01-18T06:48:49.642Z,1.26
2023-01-18T06:49:49.678Z,1.37
2023-01-18T06:50:49.710Z,1.36
2023-01-18T06:51:49.748Z,1.36
2023-01-18T06:52:49.796Z,1.38
2023-01-18T06:53:49.823Z,1.37
2023-01-18T06:54:49.862Z,1.37
2023-01-18T06:55:49.905Z,1.36
2023-01-18T06:56:49.946Z,1.37
2023-01-18T06:57:49.967Z,1.37
2023-01-18T06:58:50.011Z,1.37
2023-01-18T06:59:50.043Z,1.33
2023-01-18T07:00:50.165Z,1.33
2023-01-18T07:01:50.229Z,1.33
2023-01-18T07:02:50.134Z,1.33
2023-01-18T07:03:50.248Z,1.33
2023-01-18T07:04:50.204Z,1.34
2023-01-18T07:05:50.239Z,1.34
2023-01-18T07:06:50.274Z,1.34
2023-01-18T07:07:50.352Z,1.34
2023-01-18T07:08:50.344Z,1.34
2023-01-18T07:09:50.382Z,1.34
2023-01-18T07:10:50.412Z,1.34
2023-01-18T07:11:50.453Z,1.34
2023-01-18T07:12:50.497Z,1.34
2023-01-18T07:13:50.536Z,1.33
2023-01-18T07:14:50.559Z,1.33
2023-01-18T07:15:50.599Z,1.35
2023-01-18T07:16:50.698Z,1.35
2023-01-18T07:17:51.061Z,1.32
2023-01-18T07:18:50.766Z,1.36
2023-01-18T07:19:50.737Z,1.38
2023-01-18T07:20:50.780Z,1.37
2023-01-18T07:21:50.819Z,1.37
2023-01-18T07:22:50.861Z,1.36
2023-01-18T07:23:50.898Z,1.36
2023-01-18T07:24:50.927Z,1.36
2023-01-18T07:25:51.005Z,1.37
2023-01-18T07:26:51.006Z,1.37
2023-01-18T07:27:51.034Z,1.38
2023-01-18T07:28:51.074Z,1.39
2023-01-18T07:29:51.106Z,1.38
2023-01-18T07:30:51.159Z,1.39
2023-01-18T07:31:51.237Z,1.41
2023-01-18T07:32:52.077Z,1.41
2023-01-18T07:33:54.860Z,1.41
2023-01-18T07:35:00.731Z,1.41
2023-01-18T07:35:56.508Z,1.4
2023-01-18T07:36:57.186Z,1.4
2023-01-18T07:37:57.207Z,1.43
2023-01-18T07:38:57.247Z,1.47
2023-01-18T07:39:57.277Z,1.49
2023-01-18T07:40:57.317Z,1.49
2023-01-18T07:41:57.350Z,1.48
2023-01-18T07:42:57.954Z,1.48
2023-01-18T07:43:58.421Z,1.49
2023-01-18T07:44:57.446Z,1.5
2023-01-18T07:45:57.481Z,1.5
2023-01-18T07:46:57.511Z,1.5
2023-01-18T07:47:57.549Z,1.5
2023-01-18T07:48:57.598Z,1.49
2023-01-18T07:49:57.620Z,1.53
2023-01-18T07:50:57.656Z,1.57
2023-01-18T07:51:57.694Z,1.57
2023-01-18T07:52:58.041Z,1.56
2023-01-18T07:53:57.763Z,1.56
2023-01-18T07:54:57.800Z,1.58
2023-01-18T07:55:57.836Z,1.57
2023-01-18T07:56:57.874Z,1.57
2023-01-18T07:57:57.951Z,1.54
2023-01-18T07:58:57.946Z,1.54
2023-01-18T07:59:57.978Z,1.55
2023-01-18T08:00:58.028Z,1.59
2023-01-18T08:01:58.184Z,1.6
2023-01-18T08:02:59.286Z,1.61
2023-01-18T08:03:58.117Z,1.6
2023-01-18T08:04:58.155Z,1.62
2023-01-18T08:05:58.201Z,1.62
2023-01-18T08:06:58.237Z,1.62
2023-01-18T08:07:58.264Z,1.61
2023-01-18T08:08:58.286Z,1.63
2023-01-18T08:09:58.331Z,1.65
2023-01-18T08:10:58.355Z,1.66
2023-01-18T08:11:58.399Z,1.65
2023-01-18T08:12:58.854Z,1.65
2023-01-18T08:13:58.467Z,1.68
2023-01-18T08:14:58.504Z,1.68
2023-01-18T08:15:58.582Z,1.7
2023-01-18T08:16:58.577Z,1.7
2023-01-18T08:17:58.612Z,1.7
2023-01-18T08:18:58.640Z,1.77
2023-01-18T08:19:58.656Z,1.76
2023-01-18T08:20:58.703Z,1.77
2023-01-18T08:21:58.746Z,1.78
2023-01-18T08:22:59.128Z,1.78
2023-01-18T08:23:58.805Z,1.79
2023-01-18T08:24:58.844Z,1.81
2023-01-18T08:25:58.877Z,1.85
2023-01-18T08:26:58.913Z,1.85
2023-01-18T08:27:58.951Z,1.87
2023-01-18T08:28:58.989Z,1.87
2023-01-18T08:29:59.025Z,1.85
2023-01-18T08:30:59.168Z,1.85
2023-01-18T08:31:59.086Z,1.87
2023-01-18T08:32:59.550Z,1.86
2023-01-18T08:33:59.160Z,1.86
2023-01-18T08:34:59.202Z,1.87
2023-01-18T08:35:59.221Z,1.88
2023-01-18T08:36:59.263Z,1.9
2023-01-18T08:37:59.285Z,1.95
2023-01-18T08:39:02.259Z,1.94
2023-01-18T08:40:00.473Z,1.94
2023-01-18T08:41:00.503Z,1.95
2023-01-18T08:42:00.553Z,1.98
2023-01-18T08:43:00.925Z,1.98
2023-01-18T08:44:00.609Z,2.02
2023-01-18T08:45:00.653Z,2.01
2023-01-18T08:46:00.689Z,1.99
2023-01-18T08:47:00.752Z,1.96
2023-01-18T08:48:00.765Z,2
2023-01-18T08:49:00.792Z,2.03
2023-01-18T08:50:00.825Z,2.02
2023-01-18T08:51:00.839Z,2.02
2023-01-18T08:52:00.919Z,2.01
2023-01-18T08:53:01.368Z,2.03
2023-01-18T08:54:00.993Z,2.04
2023-01-18T08:55:00.993Z,2.07
2023-01-18T08:56:01.027Z,2.06
2023-01-18T08:57:01.338Z,2.06
2023-01-18T08:58:01.094Z,2.08
2023-01-18T08:59:01.193Z,2.08
2023-01-18T09:00:01.155Z,2.07
2023-01-18T09:01:01.192Z,2.07
2023-01-18T09:02:01.292Z,2.08
2023-01-18T09:03:01.676Z,2.08
2023-01-18T09:04:01.285Z,2.07
2023-01-18T09:05:01.323Z,2.08
2023-01-18T09:06:01.368Z,2.09
2023-01-18T09:07:01.402Z,2.12
2023-01-18T09:08:01.432Z,2.13
2023-01-18T09:09:01.675Z,2.14
2023-01-18T09:10:01.559Z,2.14
2023-01-18T09:11:01.562Z,2.13
2023-01-18T09:12:01.588Z,2.11
2023-01-18T09:13:01.903Z,2.11
2023-01-18T09:14:02.123Z,2.11
2023-01-18T09:15:01.708Z,2.09
2023-01-18T09:16:01.830Z,2.11
2023-01-18T09:17:01.758Z,2.14
2023-01-18T09:18:01.801Z,2.11
2023-01-18T09:19:01.829Z,2.12
2023-01-18T09:20:01.862Z,2.09
2023-01-18T09:21:01.898Z,2.1
2023-01-18T09:22:01.928Z,2.1
2023-01-18T09:23:01.962Z,2.11
2023-01-18T09:24:02.000Z,2.13
2023-01-18T09:25:02.031Z,2.13
2023-01-18T09:26:02.062Z,2.15
2023-01-18T09:27:02.105Z,2.15
2023-01-18T09:28:02.129Z,2.16
2023-01-18T09:29:02.163Z,2.16
2023-01-18T09:30:02.256Z,2.16
2023-01-18T09:31:02.304Z,2.16
2023-01-18T09:32:02.277Z,2.16
2023-01-18T09:33:02.529Z,2.15
2023-01-18T09:34:18.454Z,2.18
2023-01-18T09:35:02.378Z,2.18
2023-01-18T09:36:02.397Z,2.21
2023-01-18T09:37:02.437Z,2.23
2023-01-18T09:38:02.501Z,2.24
2023-01-18T09:39:02.513Z,2.22
2023-01-18T09:40:02.557Z,2.24
2023-01-18T09:41:02.646Z,2.24
2023-01-18T09:42:02.608Z,2.23
2023-01-18T09:43:02.643Z,2.23
2023-01-18T09:44:02.687Z,2.23
2023-01-18T09:45:02.716Z,2.22
2023-01-18T09:46:03.304Z,2.24
2023-01-18T09:47:02.802Z,2.21
2023-01-18T09:48:02.843Z,2.2
2023-01-18T09:49:02.865Z,2.22
2023-01-18T09:50:02.935Z,2.26
2023-01-18T09:51:02.987Z,2.3
2023-01-18T09:52:02.975Z,2.29
2023-01-18T09:53:03.007Z,2.3
2023-01-18T09:54:03.041Z,2.31
2023-01-18T09:55:03.087Z,2.3
2023-01-18T09:56:03.110Z,2.29
2023-01-18T09:57:03.148Z,2.3
2023-01-18T09:58:03.198Z,2.3
2023-01-18T09:59:03.233Z,2.29
2023-01-18T10:00:03.259Z,2.28
2023-01-18T10:01:03.383Z,2.31
2023-01-18T10:02:03.416Z,2.31
2023-01-18T10:03:03.360Z,2.31
2023-01-18T10:04:03.395Z,2.29
2023-01-18T10:05:03.456Z,2.29
2023-01-18T10:06:03.539Z,2.32
2023-01-18T10:07:03.507Z,2.31
2023-01-18T10:08:03.549Z,2.3
2023-01-18T10:09:03.575Z,2.31
2023-01-18T10:10:03.632Z,2.33
2023-01-18T10:11:03.667Z,2.36
2023-01-18T10:12:03.679Z,2.35
2023-01-18T10:13:03.705Z,2.35
2023-01-18T10:14:03.740Z,2.37
2023-01-18T10:15:03.804Z,2.37
2023-01-18T10:16:03.886Z,2.38
2023-01-18T10:17:03.844Z,2.4
2023-01-18T10:18:03.884Z,2.42
2023-01-18T10:19:03.933Z,2.38
2023-01-18T10:20:03.962Z,2.38
2023-01-18T10:21:03.997Z,2.39
2023-01-18T10:22:04.026Z,2.39
2023-01-18T10:23:04.060Z,2.39
2023-01-18T10:24:04.097Z,2.39
2023-01-18T10:25:04.137Z,2.4
2023-01-18T10:26:04.173Z,2.39
2023-01-18T10:27:04.205Z,2.4
2023-01-18T10:28:04.231Z,2.42
2023-01-18T10:29:04.289Z,2.43
2023-01-18T10:30:04.323Z,2.45
2023-01-18T10:31:04.343Z,2.46
2023-01-18T10:32:04.449Z,2.46
2023-01-18T10:33:04.427Z,2.46
2023-01-18T10:34:04.449Z,2.45
2023-01-18T10:35:04.498Z,2.46
2023-01-18T10:36:04.523Z,2.46
2023-01-18T10:37:04.576Z,2.46
2023-01-18T10:38:04.610Z,2.48
2023-01-18T10:39:04.642Z,2.48
2023-01-18T10:40:04.671Z,2.48
2023-01-18T10:41:04.707Z,2.47
2023-01-18T10:42:06.296Z,2.46
2023-01-18T10:43:04.793Z,2.51
2023-01-18T10:44:04.843Z,2.51
2023-01-18T10:45:04.853Z,2.52
2023-01-18T10:46:04.923Z,2.52
2023-01-18T10:47:04.921Z,2.53
2023-01-18T10:48:04.954Z,2.53
2023-01-18T10:49:04.983Z,2.52
2023-01-18T10:50:05.017Z,2.52
2023-01-18T10:51:05.053Z,2.54
2023-01-18T10:52:05.079Z,2.52
2023-01-18T10:53:05.115Z,2.51
2023-01-18T10:54:05.153Z,2.51
2023-01-18T10:55:05.196Z,2.55
2023-01-18T10:56:05.233Z,2.56
2023-01-18T10:57:05.265Z,2.56
2023-01-18T10:58:05.308Z,2.57
2023-01-18T10:59:05.333Z,2.57
2023-01-18T11:00:05.366Z,2.59
2023-01-18T11:01:05.547Z,2.58
2023-01-18T11:02:05.617Z,2.6
2023-01-18T11:03:05.509Z,2.61
2023-01-18T11:04:05.515Z,2.61
2023-01-18T11:05:05.551Z,2.61
2023-01-18T11:06:05.578Z,2.6
2023-01-18T11:07:05.621Z,2.57
2023-01-18T11:08:05.696Z,2.56
2023-01-18T11:09:05.691Z,2.56
2023-01-18T11:10:05.721Z,2.57
2023-01-18T11:11:05.760Z,2.61
2023-01-18T11:12:05.801Z,2.6
2023-01-18T11:13:06.325Z,2.6
2023-01-18T11:14:05.867Z,2.6
2023-01-18T11:15:05.905Z,2.61
2023-01-18T11:16:05.979Z,2.61
2023-01-18T11:17:05.970Z,2.62
2023-01-18T11:18:06.007Z,2.6
2023-01-18T11:19:06.061Z,2.65
2023-01-18T11:20:06.083Z,2.65
2023-01-18T11:21:06.113Z,2.65
2023-01-18T11:22:06.158Z,2.67
2023-01-18T11:23:06.176Z,2.68
2023-01-18T11:24:06.229Z,2.68
2023-01-18T11:25:06.240Z,2.69
2023-01-18T11:26:06.282Z,2.69
2023-01-18T11:27:06.320Z,2.68
2023-01-18T11:28:06.352Z,2.68
2023-01-18T11:29:06.392Z,2.67
2023-01-18T11:30:06.422Z,2.68
2023-01-18T11:31:06.460Z,2.69
2023-01-18T11:32:06.608Z,2.7
2023-01-18T11:33:06.544Z,2.71
2023-01-18T11:34:06.577Z,2.69
2023-01-18T11:35:06.613Z,2.7
2023-01-18T11:36:06.641Z,2.71
2023-01-18T11:37:06.684Z,2.71
2023-01-18T11:38:06.716Z,2.71
2023-01-18T11:39:06.750Z,2.7
2023-01-18T11:40:06.789Z,2.71
2023-01-18T11:41:06.828Z,2.7
2023-01-18T11:42:06.853Z,2.7
2023-01-18T11:43:06.896Z,2.69
2023-01-18T11:44:06.920Z,2.7
2023-01-18T11:45:06.957Z,2.7
2023-01-18T11:46:07.087Z,2.7
2023-01-18T11:47:07.024Z,2.72
2023-01-18T11:48:07.066Z,2.7
2023-01-18T11:49:07.095Z,2.74
2023-01-18T11:50:20.946Z,2.78
2023-01-18T11:51:07.241Z,2.78
2023-01-18T11:52:07.211Z,2.79
2023-01-18T11:53:07.252Z,2.77
2023-01-18T11:54:07.274Z,2.76
2023-01-18T11:55:07.318Z,2.79
2023-01-18T11:56:07.401Z,2.78
2023-01-18T11:57:07.420Z,2.78
2023-01-18T11:58:07.410Z,2.79
2023-01-18T11:59:07.440Z,2.78
2023-01-18T12:00:09.492Z,2.78
2023-01-18T12:01:07.563Z,2.79
2023-01-18T12:02:07.643Z,2.78
2023-01-18T12:03:07.655Z,2.79
2023-01-18T12:04:07.614Z,2.79
2023-01-18T12:05:07.650Z,2.79
2023-01-18T12:06:07.727Z,2.78
2023-01-18T12:07:07.701Z,2.79
2023-01-18T12:08:07.741Z,2.84
2023-01-18T12:09:07.766Z,2.84
2023-01-18T12:10:07.819Z,2.82
2023-01-18T12:11:07.844Z,2.82
2023-01-18T12:12:18.573Z,2.81
2023-01-18T12:13:07.916Z,2.81
2023-01-18T12:14:07.949Z,2.81
2023-01-18T12:15:07.982Z,2.83
2023-01-18T12:16:08.020Z,2.82
2023-01-18T12:17:08.065Z,2.82
2023-01-18T12:18:13.486Z,2.85
2023-01-18T12:19:08.145Z,2.84
2023-01-18T12:20:08.196Z,2.83
2023-01-18T12:21:08.207Z,2.86
2023-01-18T12:22:08.245Z,2.84
2023-01-18T12:23:08.290Z,2.86
2023-01-18T12:24:08.329Z,2.89
2023-01-18T12:25:08.390Z,2.89
2023-01-18T12:26:12.627Z,2.88
2023-01-18T12:27:08.426Z,2.87
2023-01-18T12:28:08.477Z,2.87
2023-01-18T12:29:08.504Z,2.9
2023-01-18T12:30:08.545Z,2.87
2023-01-18T12:31:08.645Z,2.88
2023-01-18T12:32:08.620Z,2.88
2023-01-18T12:33:08.644Z,2.88
2023-01-18T12:34:08.676Z,2.88
2023-01-18T12:35:23.029Z,2.87
2023-01-18T12:36:08.753Z,2.88
2023-01-18T12:37:08.778Z,2.88
2023-01-18T12:38:08.833Z,2.88
2023-01-18T12:39:08.851Z,2.85
2023-01-18T12:40:08.898Z,2.84
2023-01-18T12:41:08.930Z,2.86
2023-01-18T12:42:08.955Z,2.88
2023-01-18T12:43:09.004Z,2.89
2023-01-18T12:44:09.039Z,2.9
2023-01-18T12:45:09.060Z,2.89
2023-01-18T12:46:09.303Z,2.86
2023-01-18T12:47:09.140Z,2.89
2023-01-18T12:48:09.171Z,2.89
2023-01-18T12:49:09.199Z,2.89
2023-01-18T12:50:09.236Z,2.9
2023-01-18T12:51:09.276Z,2.9
2023-01-18T12:52:18.680Z,2.9
2023-01-18T12:53:09.346Z,2.9
2023-01-18T12:54:09.388Z,2.91
2023-01-18T12:55:09.422Z,2.89
2023-01-18T12:56:09.465Z,2.89
2023-01-18T12:57:09.608Z,2.88
2023-01-18T12:58:09.533Z,2.89
2023-01-18T12:59:09.561Z,2.89
2023-01-18T13:00:09.601Z,2.91
2023-01-18T13:01:09.770Z,2.9
2023-01-18T13:02:09.864Z,2.91
2023-01-18T13:03:09.708Z,2.89
2023-01-18T13:04:09.754Z,2.89
2023-01-18T13:05:09.795Z,2.89
2023-01-18T13:06:09.827Z,2.91
2023-01-18T13:07:09.867Z,2.92
2023-01-18T13:08:09.901Z,2.9
2023-01-18T13:09:09.953Z,2.91
2023-01-18T13:10:09.983Z,2.9
2023-01-18T13:11:10.035Z,2.91
2023-01-18T13:12:10.051Z,2.9
2023-01-18T13:13:10.105Z,2.88
2023-01-18T13:14:10.113Z,2.95
2023-01-18T13:15:10.143Z,2.93
2023-01-18T13:16:10.240Z,2.93
2023-01-18T13:17:10.231Z,2.92
2023-01-18T13:18:10.264Z,2.94
2023-01-18T13:19:10.296Z,2.91
2023-01-18T13:20:10.324Z,2.89
2023-01-18T13:21:10.365Z,2.9
2023-01-18T13:22:10.408Z,2.89